createdAt,value
2022-08-23T00:00:12.008Z,2.599
2022-08-23T00:01:07.448Z,2.799
2022-08-23T00:02:06.955Z,2.599
2022-08-23T00:04:07.401Z,2.700
2022-08-23T00:05:09.742Z,2.599
2022-08-23T00:06:07.459Z,2.5
2022-08-23T00:07:07.487Z,2.799
2022-08-23T00:08:07.322Z,2.299
2022-08-23T00:09:07.498Z,2.400
2022-08-23T00:10:07.536Z,2.5
2022-08-23T00:12:07.557Z,2.599
2022-08-23T00:13:07.117Z,2.5
2022-08-23T00:14:07.510Z,3
2022-08-23T00:15:08.026Z,2.599
2022-08-23T00:16:07.236Z,2.5
2022-08-23T00:17:07.622Z,2.799
2022-08-23T00:18:07.097Z,2.700
2022-08-23T00:19:07.148Z,2.599
2022-08-23T00:21:07.315Z,2.700
2022-08-23T00:23:07.238Z,2.799
2022-08-23T00:24:07.548Z,2.599
2022-08-23T00:26:07.318Z,2.700
2022-08-23T00:27:07.280Z,2.799
2022-08-23T00:28:12.520Z,2.5
2022-08-23T00:29:06.977Z,2.700
2022-08-23T00:30:07.583Z,3.099
2022-08-23T00:31:07.459Z,2.5
2022-08-23T00:32:07.631Z,2.400
2022-08-23T00:33:07.150Z,2.5
2022-08-23T00:34:07.212Z,2.799
2022-08-23T00:35:07.524Z,2.400
2022-08-23T00:36:07.817Z,2.799
2022-08-23T00:37:07.050Z,2.5
2022-08-23T00:38:31.940Z,2.700
2022-08-23T00:40:07.196Z,2.799
2022-08-23T00:41:07.590Z,2.599
2022-08-23T00:43:07.053Z,2.700
2022-08-23T00:45:07.631Z,3.200
2022-08-23T00:46:06.965Z,2.900
2022-08-23T00:47:07.350Z,3.200
2022-08-23T00:48:07.481Z,2.400
2022-08-23T00:49:07.562Z,2.799
2022-08-23T00:50:23.402Z,2.900
2022-08-23T00:51:07.306Z,2.700
2022-08-23T00:52:07.506Z,2.900
2022-08-23T00:54:06.982Z,2.599
2022-08-23T00:55:07.034Z,2.900
2022-08-23T00:56:07.064Z,2.700
2022-08-23T00:58:07.282Z,2.599
2022-08-23T00:59:07.344Z,3.099
2022-08-23T01:00:08.319Z,2.700
2022-08-23T01:01:07.526Z,2.900
2022-08-23T01:02:07.714Z,2.5
2022-08-23T01:03:07.321Z,2.900
2022-08-23T01:05:07.614Z,3.200
2022-08-23T01:06:06.986Z,2.900
2022-08-23T01:07:07.077Z,3.299
2022-08-23T01:08:06.996Z,2.900
2022-08-23T01:09:07.435Z,2.799
2022-08-23T01:10:07.761Z,2.900
2022-08-23T01:11:08.667Z,2.799
2022-08-23T01:12:07.057Z,3
2022-08-23T01:13:07.205Z,2.900
2022-08-23T01:14:07.607Z,2.700
2022-08-23T01:15:08.015Z,2.5
2022-08-23T01:16:07.447Z,2.900
2022-08-23T01:17:07.847Z,3.099
2022-08-23T01:18:07.309Z,2.700
2022-08-23T01:19:07.292Z,2.900
2022-08-23T01:20:07.451Z,2.700
2022-08-23T01:21:10.349Z,2.900
2022-08-23T01:22:07.105Z,2.599
2022-08-23T01:23:07.043Z,3
2022-08-23T01:24:07.198Z,2.799
2022-08-23T01:25:08.919Z,3.200
2022-08-23T01:26:07.475Z,2.900
2022-08-23T01:27:07.433Z,3.099
2022-08-23T01:28:07.427Z,2.799
2022-08-23T01:29:07.321Z,3.200
2022-08-23T01:30:07.641Z,2.799
2022-08-23T01:31:06.928Z,2.900
2022-08-23T01:33:07.284Z,2.799
2022-08-23T01:34:07.193Z,3.299
2022-08-23T01:35:07.475Z,2.900
2022-08-23T01:36:09.868Z,3.200
2022-08-23T01:37:07.426Z,2.799
2022-08-23T01:38:07.514Z,3.099
2022-08-23T01:39:07.692Z,3
2022-08-23T01:40:07.309Z,3.099
2022-08-23T01:41:07.547Z,3.200
2022-08-23T01:42:07.858Z,2.700
2022-08-23T01:44:07.355Z,3
2022-08-23T01:45:07.938Z,2.799
2022-08-23T01:46:07.220Z,2.700
2022-08-23T01:47:07.375Z,3.200
2022-08-23T01:48:07.380Z,3.299
2022-08-23T01:49:08.476Z,3.099
2022-08-23T01:50:07.784Z,2.799
2022-08-23T01:51:07.013Z,3
2022-08-23T01:52:07.410Z,2.799
2022-08-23T01:53:07.355Z,3
2022-08-23T01:55:07.697Z,2.799
2022-08-23T01:56:07.313Z,3.099
2022-08-23T01:57:07.395Z,2.799
2022-08-23T01:58:07.317Z,3.200
2022-08-23T01:59:07.201Z,3
2022-08-23T02:00:08.147Z,3.099
2022-08-23T02:01:07.428Z,3
2022-08-23T02:02:07.658Z,2.900
2022-08-23T02:03:06.975Z,3.200
2022-08-23T02:04:07.079Z,2.900
2022-08-23T02:05:07.471Z,3
2022-08-23T02:06:07.847Z,3.099
2022-08-23T02:07:07.080Z,3.299
2022-08-23T02:08:07.421Z,3.099
2022-08-23T02:09:17.967Z,3.200
2022-08-23T02:10:07.290Z,3
2022-08-23T02:11:07.497Z,3.200
2022-08-23T02:12:07.778Z,3.299
2022-08-23T02:13:07.187Z,2.900
2022-08-23T02:15:07.850Z,3.299
2022-08-23T02:16:07.302Z,3.200
2022-08-23T02:17:07.080Z,3.099
2022-08-23T02:18:07.281Z,3
2022-08-23T02:19:07.560Z,3.099
2022-08-23T02:20:07.877Z,3.299
2022-08-23T02:22:07.442Z,3.099
2022-08-23T02:23:07.601Z,3.400
2022-08-23T02:24:07.577Z,3.099
2022-08-23T02:25:07.042Z,3.200
2022-08-23T02:26:07.112Z,3.299
2022-08-23T02:27:07.174Z,3.799
2022-08-23T02:28:07.280Z,2.799
2022-08-23T02:29:07.427Z,3.200
2022-08-23T02:31:07.070Z,3
2022-08-23T02:32:07.688Z,3.299
2022-08-23T02:33:06.997Z,3.200
2022-08-23T02:34:07.193Z,3
2022-08-23T02:35:07.229Z,2.900
2022-08-23T02:37:07.128Z,3.400
2022-08-23T02:38:07.547Z,3.299
2022-08-23T02:39:07.533Z,3.599
2022-08-23T02:40:07.184Z,3.099
2022-08-23T02:41:07.558Z,3.299
2022-08-23T02:42:07.560Z,3.099
2022-08-23T02:43:07.344Z,3.200
2022-08-23T02:44:07.551Z,3.099
2022-08-23T02:46:07.267Z,3
2022-08-23T02:47:07.581Z,3.299
2022-08-23T02:48:07.772Z,3.099
2022-08-23T02:49:07.252Z,3.400
2022-08-23T02:50:07.658Z,3.099
2022-08-23T02:51:07.164Z,3.200
2022-08-23T02:52:07.090Z,3
2022-08-23T02:53:07.408Z,3.200
2022-08-23T02:54:07.551Z,3.5
2022-08-23T02:55:07.265Z,3.200
2022-08-23T02:57:07.169Z,3.099
2022-08-23T03:00:08.311Z,3.200
2022-08-23T03:01:07.268Z,3.099
2022-08-23T03:02:07.385Z,3
2022-08-23T03:03:07.608Z,3.200
2022-08-23T03:05:07.296Z,3.299
2022-08-23T03:07:07.392Z,3
2022-08-23T03:08:07.393Z,3.299
2022-08-23T03:09:07.799Z,3.099
2022-08-23T03:10:06.921Z,3.400
2022-08-23T03:12:07.354Z,3.099
2022-08-23T03:13:07.486Z,3.200
2022-08-23T03:14:07.382Z,3.099
2022-08-23T03:15:07.494Z,3.200
2022-08-23T03:17:07.107Z,3.400
2022-08-23T03:18:06.944Z,3.299
2022-08-23T03:19:06.997Z,3.5
2022-08-23T03:20:07.162Z,3.400
2022-08-23T03:21:07.258Z,3.599
2022-08-23T03:22:07.445Z,3.400
2022-08-23T03:23:07.555Z,3.599
2022-08-23T03:24:10.332Z,3.200
2022-08-23T03:25:07.411Z,4
2022-08-23T03:26:07.619Z,3.099
2022-08-23T03:27:07.647Z,2.900
2022-08-23T03:28:07.145Z,3.700
2022-08-23T03:29:07.386Z,3.5
2022-08-23T03:30:09.503Z,3.599
2022-08-23T03:31:07.241Z,3.400
2022-08-23T03:32:07.336Z,3.700
2022-08-23T03:33:07.073Z,3.400
2022-08-23T03:34:07.035Z,3.200
2022-08-23T03:35:14.366Z,3.400
2022-08-23T03:36:07.523Z,3.799
2022-08-23T03:37:07.596Z,3.599
2022-08-23T03:39:07.388Z,3.5
2022-08-23T03:40:07.694Z,4
2022-08-23T03:41:07.128Z,3.400
2022-08-23T03:42:07.819Z,3.799
2022-08-23T03:43:07.416Z,3.900
2022-08-23T03:44:07.618Z,3.599
2022-08-23T03:46:07.345Z,3.900
2022-08-23T03:47:07.612Z,3.400
2022-08-23T03:48:07.163Z,3.5
2022-08-23T03:49:07.062Z,3.799
2022-08-23T03:50:07.151Z,3.400
2022-08-23T03:52:07.523Z,3.700
2022-08-23T03:53:06.880Z,3.599
2022-08-23T03:54:07.424Z,3.5
2022-08-23T03:55:07.462Z,3.599
2022-08-23T03:58:07.316Z,3.5
2022-08-23T03:59:07.662Z,3.900
2022-08-23T04:00:07.832Z,3.700
2022-08-23T04:02:07.478Z,3.799
2022-08-23T04:03:07.508Z,3.400
2022-08-23T04:04:07.724Z,3.299
2022-08-23T04:05:07.005Z,3.5
2022-08-23T04:06:07.119Z,3.700
2022-08-23T04:08:07.328Z,3.5
2022-08-23T04:09:07.420Z,3.700
2022-08-23T04:10:07.661Z,3.599
2022-08-23T04:12:11.992Z,3.799
2022-08-23T04:13:07.418Z,3.900
2022-08-23T04:14:07.355Z,3.700
2022-08-23T04:17:06.763Z,3.900
2022-08-23T04:18:07.098Z,3.599
2022-08-23T04:19:08.776Z,3.900
2022-08-23T04:20:07.176Z,3.799
2022-08-23T04:21:07.214Z,3.599
2022-08-23T04:22:07.153Z,3.400
2022-08-23T04:23:07.140Z,3.700
2022-08-23T04:27:07.079Z,3.799
2022-08-23T04:28:07.604Z,3.900
2022-08-23T04:29:07.169Z,3.700
2022-08-23T04:30:08.354Z,4.300
2022-08-23T04:31:07.614Z,3.799
2022-08-23T04:32:07.797Z,3.5
2022-08-23T04:33:09.997Z,3.700
2022-08-23T04:34:07.465Z,3.5
2022-08-23T04:35:07.125Z,3.599
2022-08-23T04:36:07.301Z,3.799
2022-08-23T04:37:09.564Z,3.900
2022-08-23T04:39:07.355Z,3.799
2022-08-23T04:40:07.518Z,3.599
2022-08-23T04:41:11.267Z,4
2022-08-23T04:42:07.095Z,3.400
2022-08-23T04:43:07.525Z,3.799
2022-08-23T04:46:07.781Z,3.900
2022-08-23T04:47:07.138Z,4
2022-08-23T04:48:11.706Z,3.700
2022-08-23T04:49:07.304Z,3.900
2022-08-23T04:50:07.392Z,3.700
2022-08-23T04:52:06.836Z,4
2022-08-23T04:53:06.683Z,4.300
2022-08-23T04:54:07.635Z,3.5
2022-08-23T04:55:06.900Z,3.900
2022-08-23T04:56:07.187Z,3.700
2022-08-23T04:57:07.302Z,3.200
2022-08-23T04:58:07.577Z,3.900
2022-08-23T04:59:07.106Z,3.700
2022-08-23T05:00:07.650Z,3.5
2022-08-23T05:01:07.282Z,3.799
2022-08-23T05:02:07.079Z,3.599
2022-08-23T05:03:07.240Z,3.700
2022-08-23T05:04:07.348Z,3.900
2022-08-23T05:05:07.840Z,3.5
2022-08-23T05:06:07.157Z,3.900
2022-08-23T05:07:07.461Z,3.400
2022-08-23T05:08:07.025Z,4.300
2022-08-23T05:09:07.434Z,3.799
2022-08-23T05:10:07.667Z,4
2022-08-23T05:11:07.029Z,3.599
2022-08-23T05:12:07.182Z,3.700
2022-08-23T05:13:07.471Z,3.299
2022-08-23T05:14:07.606Z,3.799
2022-08-23T05:16:07.318Z,3.400
2022-08-23T05:17:07.676Z,3.900
2022-08-23T05:18:07.479Z,3.200
2022-08-23T05:19:07.655Z,3.5
2022-08-23T05:20:07.042Z,3.900
2022-08-23T05:21:07.272Z,3.5
2022-08-23T05:22:07.465Z,3.799
2022-08-23T05:23:07.275Z,3.599
2022-08-23T05:24:07.619Z,3.5
2022-08-23T05:25:07.137Z,3.900
2022-08-23T05:26:07.366Z,3.799
2022-08-23T05:27:10.629Z,3.700
2022-08-23T05:29:06.963Z,3.5
2022-08-23T05:30:07.531Z,3.700
2022-08-23T05:31:10.428Z,4
2022-08-23T05:32:07.035Z,3.900
2022-08-23T05:33:07.387Z,3.599
2022-08-23T05:34:07.510Z,3.799
2022-08-23T05:35:07.918Z,3.5
2022-08-23T05:36:07.184Z,3.799
2022-08-23T05:37:07.247Z,3.5
2022-08-23T05:38:07.418Z,3.599
2022-08-23T05:39:07.849Z,3.400
2022-08-23T05:40:07.515Z,3.799
2022-08-23T05:41:07.218Z,3.700
2022-08-23T05:43:07.246Z,4
2022-08-23T05:44:07.445Z,3.700
2022-08-23T05:45:07.553Z,3.5
2022-08-23T05:46:07.034Z,3.900
2022-08-23T05:47:10.534Z,3.5
2022-08-23T05:48:07.511Z,3.599
2022-08-23T05:49:07.592Z,3.400
2022-08-23T05:50:07.643Z,3.799
2022-08-23T05:51:07.159Z,3.599
2022-08-23T05:52:07.568Z,4.099
2022-08-23T05:53:07.015Z,3.400
2022-08-23T05:54:07.403Z,3.799
2022-08-23T05:55:07.824Z,4
2022-08-23T05:56:07.296Z,3.799
2022-08-23T05:57:07.667Z,3.599
2022-08-23T05:59:07.605Z,3.700
2022-08-23T06:00:08.612Z,3.599
2022-08-23T06:01:07.344Z,3.799
2022-08-23T06:02:07.688Z,3.400
2022-08-23T06:03:07.111Z,3.599
2022-08-23T06:04:07.508Z,3.5
2022-08-23T06:05:07.971Z,3.299
2022-08-23T06:06:07.109Z,4.400
2022-08-23T06:07:07.214Z,3.700
2022-08-23T06:09:07.524Z,3.5
2022-08-23T06:10:06.783Z,3.599
2022-08-23T06:11:07.157Z,3.5
2022-08-23T06:13:07.254Z,3.200
2022-08-23T06:14:07.632Z,3.099
2022-08-23T06:15:07.139Z,3.599
2022-08-23T06:16:14.753Z,3.099
2022-08-23T06:17:07.715Z,3.400
2022-08-23T06:18:07.027Z,3.099
2022-08-23T06:20:07.699Z,3
2022-08-23T06:21:07.210Z,3.099
2022-08-23T06:22:07.365Z,2.799
2022-08-23T06:23:07.683Z,2.900
2022-08-23T06:24:07.302Z,3
2022-08-23T06:25:09.718Z,2.900
2022-08-23T06:26:07.075Z,3.400
2022-08-23T06:27:07.288Z,2.900
2022-08-23T06:28:07.727Z,2.700
2022-08-23T06:29:07.733Z,2.799
2022-08-23T06:30:07.486Z,3.099
2022-08-23T06:31:07.694Z,3
2022-08-23T06:32:07.359Z,3.200
2022-08-23T06:33:07.066Z,2.5
2022-08-23T06:34:07.595Z,2.900
2022-08-23T06:35:36.824Z,3.099
2022-08-23T06:37:07.436Z,2.900
2022-08-23T06:38:07.600Z,2.799
2022-08-23T06:39:07.734Z,2.900
2022-08-23T06:40:07.002Z,3.099
2022-08-23T06:41:07.271Z,2.599
2022-08-23T06:42:22.203Z,2.799
2022-08-23T06:43:07.195Z,3.200
2022-08-23T06:44:07.392Z,2.799
2022-08-23T06:46:06.934Z,3.099
2022-08-23T06:47:07.601Z,2.900
2022-08-23T06:48:06.925Z,3
2022-08-23T06:49:07.060Z,2.700
2022-08-23T06:50:07.460Z,2.900
2022-08-23T06:51:07.226Z,2.799
2022-08-23T06:52:07.368Z,2.700
2022-08-23T06:53:10.029Z,2.900
2022-08-23T06:54:07.601Z,3
2022-08-23T06:55:11.754Z,2.900
2022-08-23T06:56:07.079Z,2.700
2022-08-23T06:57:07.191Z,2.799
2022-08-23T06:59:07.608Z,3
2022-08-23T07:00:07.575Z,2.799
2022-08-23T07:01:14.639Z,2.599
2022-08-23T07:02:07.191Z,3
2022-08-23T07:03:07.779Z,2.5
2022-08-23T07:04:07.249Z,3.099
2022-08-23T07:05:07.927Z,2.900
2022-08-23T07:06:07.221Z,3.200
2022-08-23T07:07:11.395Z,2.700
2022-08-23T07:08:07.231Z,2.599
2022-08-23T07:10:07.128Z,2.799
2022-08-23T07:11:07.341Z,3.200
2022-08-23T07:12:07.855Z,2.5
2022-08-23T07:13:07.204Z,2.700
2022-08-23T07:14:07.526Z,2.599
2022-08-23T07:15:07.443Z,2.700
2022-08-23T07:16:07.909Z,3.200
2022-08-23T07:17:07.504Z,2.599
2022-08-23T07:18:07.728Z,2.400
2022-08-23T07:19:07.096Z,2.700
2022-08-23T07:20:07.701Z,2.799
2022-08-23T07:22:07.520Z,3
2022-08-23T07:23:06.944Z,3.099
2022-08-23T07:25:07.673Z,2.5
2022-08-23T07:26:07.047Z,3.200
2022-08-23T07:27:07.370Z,3.099
2022-08-23T07:28:11.510Z,2.799
2022-08-23T07:29:07.044Z,2.599
2022-08-23T07:30:07.369Z,2.799
2022-08-23T07:31:12.341Z,2.700
2022-08-23T07:32:07.669Z,2.799
2022-08-23T07:33:07.387Z,2.900
2022-08-23T07:34:07.449Z,2.700
2022-08-23T07:35:07.677Z,2.799
2022-08-23T07:36:07.242Z,3.099
2022-08-23T07:37:11.271Z,2.700
2022-08-23T07:40:07.499Z,3.099
2022-08-23T07:41:06.943Z,2.900
2022-08-23T07:42:23.174Z,3.099
2022-08-23T07:43:07.496Z,2.900
2022-08-23T07:44:06.956Z,2.799
2022-08-23T07:45:09.956Z,3.200
2022-08-23T07:46:07.035Z,2.900
2022-08-23T07:47:07.486Z,3.599
2022-08-23T07:48:07.778Z,3.200
2022-08-23T07:49:07.696Z,2.799
2022-08-23T07:50:07.141Z,2.900
2022-08-23T07:51:07.263Z,2.700
2022-08-23T07:52:07.742Z,3
2022-08-23T07:53:07.021Z,2.700
2022-08-23T07:54:07.321Z,3
2022-08-23T07:56:07.013Z,3.400
2022-08-23T07:57:07.895Z,2.900
2022-08-23T07:58:07.026Z,3.299
2022-08-23T07:59:07.449Z,2.799
2022-08-23T08:00:09.277Z,3.099
2022-08-23T08:02:07.435Z,3
2022-08-23T08:03:07.244Z,2.799
2022-08-23T08:04:07.324Z,2.900
2022-08-23T08:05:07.581Z,2.799
2022-08-23T08:06:07.115Z,3.200
2022-08-23T08:08:07.463Z,4.099
2022-08-23T08:09:07.697Z,3.5
2022-08-23T08:11:07.024Z,2.799
2022-08-23T08:12:07.706Z,2.900
2022-08-23T08:14:07.016Z,3.200
2022-08-23T08:15:07.659Z,2.700
2022-08-23T08:16:06.977Z,2.799
2022-08-23T08:17:07.311Z,2.900
2022-08-23T08:18:07.348Z,3.400
2022-08-23T08:19:07.834Z,2.599
2022-08-23T08:20:26.203Z,3.400
2022-08-23T08:21:07.455Z,3
2022-08-23T08:22:07.609Z,2.799
2022-08-23T08:23:07.040Z,3.200
2022-08-23T08:24:07.569Z,2.700
2022-08-23T08:25:07.161Z,2.900
2022-08-23T08:26:07.479Z,3
2022-08-23T08:27:07.939Z,2.900
2022-08-23T08:28:09.462Z,2.700
2022-08-23T08:29:07.241Z,2.900
2022-08-23T08:30:07.714Z,2.599
2022-08-23T08:31:07.881Z,2.799
2022-08-23T08:32:07.410Z,2.599
2022-08-23T08:33:07.189Z,2.700
2022-08-23T08:34:07.476Z,2.5
2022-08-23T08:35:08.105Z,2.599
2022-08-23T08:36:07.237Z,2.299
2022-08-23T08:37:07.430Z,2.5
2022-08-23T08:38:07.999Z,2.799
2022-08-23T08:39:07.241Z,2.5
2022-08-23T08:41:07.255Z,2.700
2022-08-23T08:42:07.196Z,2.400
2022-08-23T08:43:07.475Z,2.700
2022-08-23T08:44:07.817Z,2.799
2022-08-23T08:45:07.562Z,2.5
2022-08-23T08:47:07.011Z,2.700
2022-08-23T08:48:11.337Z,2.400
2022-08-23T08:49:06.904Z,2.700
2022-08-23T08:51:07.142Z,2.400
2022-08-23T08:52:07.368Z,2.299
2022-08-23T08:53:07.639Z,2.599
2022-08-23T08:54:07.037Z,2.299
2022-08-23T08:56:08.061Z,2.700
2022-08-23T08:57:07.652Z,2.299
2022-08-23T08:58:07.174Z,2.599
2022-08-23T08:59:07.444Z,2.299
2022-08-23T09:00:08.449Z,2.400
2022-08-23T09:01:07.276Z,2.299
2022-08-23T09:02:32.032Z,2.200
2022-08-23T09:03:07.167Z,2.299
2022-08-23T09:04:07.774Z,2.5
2022-08-23T09:05:07.285Z,2.400
2022-08-23T09:06:07.985Z,2.299
2022-08-23T09:07:07.985Z,2.5
2022-08-23T09:09:07.272Z,2.599
2022-08-23T09:10:07.885Z,2.400
2022-08-23T09:11:06.846Z,2.599
2022-08-23T09:12:07.519Z,2.700
2022-08-23T09:13:07.872Z,2.599
2022-08-23T09:14:07.066Z,2.5
2022-08-23T09:15:07.520Z,2.700
2022-08-23T09:16:07.146Z,2.400
2022-08-23T09:17:07.573Z,2.799
2022-08-23T09:18:07.653Z,2.200
2022-08-23T09:19:07.183Z,2.400
2022-08-23T09:21:07.790Z,2.5
2022-08-23T09:22:07.441Z,2.599
2022-08-23T09:23:07.227Z,2.700
2022-08-23T09:24:07.749Z,2.5
2022-08-23T09:25:07.976Z,2.599
2022-08-23T09:26:07.536Z,2.299
2022-08-23T09:27:07.627Z,2.200
2022-08-23T09:28:07.412Z,2.5
2022-08-23T09:29:07.152Z,2.599
2022-08-23T09:30:07.785Z,2.5
2022-08-23T09:31:08.409Z,2.200
2022-08-23T09:33:07.135Z,2.700
2022-08-23T09:34:07.393Z,2.200
2022-08-23T09:35:08.017Z,2.5
2022-08-23T09:36:08.427Z,2.799
2022-08-23T09:37:06.899Z,2.5
2022-08-23T09:38:07.123Z,2.299
2022-08-23T09:39:07.360Z,2.200
2022-08-23T09:40:07.922Z,2.5
2022-08-23T09:41:07.273Z,2.299
2022-08-23T09:43:06.922Z,2.400
2022-08-23T09:46:07.168Z,2.299
2022-08-23T09:47:07.506Z,2.599
2022-08-23T09:48:07.132Z,2.299
2022-08-23T09:49:07.549Z,2.099
2022-08-23T09:50:07.829Z,2.299
2022-08-23T09:53:07.751Z,2.200
2022-08-23T09:54:07.604Z,2.099
2022-08-23T09:55:07.307Z,2.400
2022-08-23T09:56:07.304Z,2.099
2022-08-23T09:58:07.641Z,2.299
2022-08-23T10:01:07.589Z,2
2022-08-23T10:02:08.241Z,2.200
2022-08-23T10:03:07.081Z,2.400
2022-08-23T10:04:07.674Z,2.200
2022-08-23T10:07:07.738Z,2.400
2022-08-23T10:10:06.971Z,2.200
2022-08-23T10:12:07.580Z,2.299
2022-08-23T10:13:07.222Z,2
2022-08-23T10:14:07.055Z,2.200
2022-08-23T10:15:07.776Z,2.099
2022-08-23T10:17:15.197Z,2.200
2022-08-23T10:20:07.827Z,2.099
2022-08-23T10:22:07.200Z,2
2022-08-23T10:23:07.669Z,2.099
2022-08-23T10:24:07.955Z,2.299
2022-08-23T10:25:07.421Z,2.200
2022-08-23T10:26:07.672Z,2.400
2022-08-23T10:27:07.011Z,2.200
2022-08-23T10:28:07.424Z,2.400
2022-08-23T10:29:07.781Z,2.299
2022-08-23T10:30:07.665Z,2.200
2022-08-23T10:31:07.240Z,2.099
2022-08-23T10:32:07.689Z,2.299
2022-08-23T10:33:07.187Z,2.700
2022-08-23T10:34:07.330Z,2
2022-08-23T10:35:07.730Z,2.400
2022-08-23T10:36:07.463Z,2.200
2022-08-23T10:38:07.415Z,2.099
2022-08-23T10:39:07.675Z,2.299
2022-08-23T10:40:07.510Z,2
2022-08-23T10:41:07.157Z,2.400
2022-08-23T10:44:06.977Z,2.200
2022-08-23T10:45:07.716Z,2.599
2022-08-23T10:46:07.330Z,2.099
2022-08-23T10:47:06.890Z,2.400
2022-08-23T10:48:07.009Z,2.200
2022-08-23T10:49:07.170Z,2.400
2022-08-23T10:51:07.696Z,2.200
2022-08-23T10:53:06.928Z,2.299
2022-08-23T10:54:07.203Z,2
2022-08-23T10:55:07.591Z,2.200
2022-08-23T10:56:07.078Z,2.299
2022-08-23T10:57:07.374Z,2.5
2022-08-23T10:58:07.660Z,2.200
2022-08-23T11:01:07.265Z,2.099
2022-08-23T11:02:07.640Z,2.599
2022-08-23T11:03:06.999Z,2.200
2022-08-23T11:04:07.494Z,2.299
2022-08-23T11:05:07.790Z,2.400
2022-08-23T11:06:07.622Z,2.299
2022-08-23T11:07:07.196Z,2.400
2022-08-23T11:09:07.642Z,2.099
2022-08-23T11:13:07.291Z,2.400
2022-08-23T11:14:07.481Z,2.099
2022-08-23T11:15:08.302Z,2
2022-08-23T11:16:08.142Z,2.400
2022-08-23T11:17:08.260Z,2.200
2022-08-23T11:18:07.659Z,1.899
2022-08-23T11:19:07.264Z,2.299
2022-08-23T11:21:07.170Z,2.200
2022-08-23T11:22:07.625Z,2.099
2022-08-23T11:24:07.566Z,2.400
2022-08-23T11:25:08.785Z,2.200
2022-08-23T11:27:07.605Z,2.099
2022-08-23T11:28:07.228Z,2.400
2022-08-23T11:30:07.923Z,1.899
2022-08-23T11:31:07.495Z,2
2022-08-23T11:32:07.604Z,1.700
2022-08-23T11:33:07.642Z,2.400
2022-08-23T11:34:07.678Z,1.899
2022-08-23T11:35:07.248Z,2.299
2022-08-23T11:36:07.934Z,2
2022-08-23T11:37:07.345Z,2.299
2022-08-23T11:38:07.570Z,2.200
2022-08-23T11:39:07.021Z,2.400
2022-08-23T11:40:07.493Z,1.799
2022-08-23T11:41:06.922Z,2.099
2022-08-23T11:42:07.296Z,1.899
2022-08-23T11:43:07.530Z,2
2022-08-23T11:45:07.639Z,1.899
2022-08-23T11:46:07.283Z,2.099
2022-08-23T11:48:07.520Z,1.899
2022-08-23T11:49:07.574Z,2.099
2022-08-23T11:51:07.175Z,2
2022-08-23T11:53:07.431Z,2.099
2022-08-23T11:54:07.599Z,2
2022-08-23T11:56:08.028Z,2.099
2022-08-23T11:57:07.657Z,1.799
2022-08-23T11:58:07.942Z,2
2022-08-23T11:59:08.727Z,2.099
2022-08-23T12:00:08.299Z,2.200
2022-08-23T12:02:07.277Z,2
2022-08-23T12:04:07.670Z,1.899
2022-08-23T12:05:07.614Z,1.700
2022-08-23T12:06:07.756Z,2
2022-08-23T12:07:07.358Z,2.099
2022-08-23T12:08:07.600Z,1.899
2022-08-23T12:09:07.043Z,2.200
2022-08-23T12:10:07.685Z,2.299
2022-08-23T12:11:07.306Z,2.200
2022-08-23T12:13:06.983Z,2
2022-08-23T12:17:07.227Z,2.099
2022-08-23T12:18:07.240Z,2.200
2022-08-23T12:19:07.947Z,1.899
2022-08-23T12:20:06.978Z,1.700
2022-08-23T12:21:07.129Z,1.899
2022-08-23T12:22:07.588Z,2.099
2022-08-23T12:23:07.250Z,1.899
2022-08-23T12:24:07.755Z,2
2022-08-23T12:25:07.350Z,2.599
2022-08-23T12:26:07.557Z,2.5
2022-08-23T12:27:07.348Z,2.099
2022-08-23T12:28:07.988Z,2
2022-08-23T12:29:07.617Z,1.700
2022-08-23T12:30:07.679Z,2.200
2022-08-23T12:31:13.060Z,1.799
2022-08-23T12:32:07.769Z,2.099
2022-08-23T12:33:07.097Z,1.899
2022-08-23T12:34:07.364Z,2
2022-08-23T12:37:09.587Z,2.400
2022-08-23T12:38:07.052Z,2
2022-08-23T12:39:07.563Z,2.099
2022-08-23T12:40:07.956Z,2
2022-08-23T12:41:07.479Z,2.099
2022-08-23T12:44:07.604Z,2.400
2022-08-23T12:45:08.459Z,2
2022-08-23T12:46:07.027Z,1.600
2022-08-23T12:47:08.422Z,1.799
2022-08-23T12:48:07.238Z,1.600
2022-08-23T12:50:07.624Z,1.799
2022-08-23T12:51:07.122Z,1.5
2022-08-23T12:52:07.576Z,1.700
2022-08-23T12:53:07.292Z,1.600
2022-08-23T12:54:07.794Z,1.799
2022-08-23T12:55:07.538Z,2
2022-08-23T12:56:07.112Z,1.700
2022-08-23T12:57:07.672Z,1.799
2022-08-23T12:58:07.039Z,2.099
2022-08-23T12:59:07.387Z,1.899
2022-08-23T13:00:16.763Z,2.099
2022-08-23T13:01:07.630Z,1.899
2022-08-23T13:02:07.180Z,2.400
2022-08-23T13:03:07.603Z,1.899
2022-08-23T13:06:07.091Z,1.700
2022-08-23T13:07:07.663Z,2.099
2022-08-23T13:08:07.333Z,2.200
2022-08-23T13:09:07.904Z,1.700
2022-08-23T13:10:07.469Z,1.799
2022-08-23T13:11:08.721Z,2
2022-08-23T13:12:07.341Z,2.299
2022-08-23T13:13:07.783Z,1.799
2022-08-23T13:14:07.466Z,1.899
2022-08-23T13:15:07.207Z,2
2022-08-23T13:16:07.868Z,1.799
2022-08-23T13:17:07.212Z,2.099
2022-08-23T13:18:07.257Z,1.700
2022-08-23T13:20:07.774Z,1.799
2022-08-23T13:21:07.101Z,1.899
2022-08-23T13:22:07.383Z,2.200
2022-08-23T13:23:07.484Z,2.099
2022-08-23T13:24:07.556Z,1.799
2022-08-23T13:26:06.782Z,1.600
2022-08-23T13:27:07.313Z,1.899
2022-08-23T13:28:07.709Z,1.799
2022-08-23T13:29:07.299Z,2
2022-08-23T13:30:07.835Z,1.799
2022-08-23T13:31:07.823Z,1.700
2022-08-23T13:33:07.676Z,1.399
2022-08-23T13:34:07.181Z,1.600
2022-08-23T13:35:07.491Z,1.700
2022-08-23T13:36:12.921Z,1.5
2022-08-23T13:37:07.010Z,1.899
2022-08-23T13:38:07.202Z,1.799
2022-08-23T13:40:07.481Z,1.5
2022-08-23T13:41:07.126Z,1.700
2022-08-23T13:43:10.125Z,1.700
2022-08-23T13:44:07.540Z,1.600
2022-08-23T13:46:07.115Z,2
2022-08-23T13:47:07.112Z,1.399
2022-08-23T13:50:11.535Z,1.700
2022-08-23T13:51:07.098Z,1.399
2022-08-23T13:52:37.991Z,1.5
2022-08-23T13:53:15.132Z,1.700
2022-08-23T13:54:07.237Z,1.5
2022-08-23T13:55:07.928Z,1.399
2022-08-23T13:56:07.480Z,1.600
2022-08-23T13:58:08.123Z,1
2022-08-23T13:59:07.766Z,1.600
2022-08-23T14:00:08.804Z,1.5
2022-08-23T14:01:07.966Z,1.399
2022-08-23T14:02:07.869Z,1
2022-08-23T14:03:07.473Z,1.5
2022-08-23T14:06:07.905Z,1.600
2022-08-23T14:07:07.537Z,1.5
2022-08-23T14:08:07.304Z,1.399
2022-08-23T14:09:08.018Z,1
2022-08-23T14:10:07.849Z,1.5
2022-08-23T14:12:09.557Z,1
2022-08-23T14:13:07.467Z,1.5
2022-08-23T14:14:08.094Z,1.700
2022-08-23T14:15:08.063Z,1.799
2022-08-23T14:16:33.793Z,1.700
2022-08-23T14:17:10.628Z,1.600
2022-08-23T14:20:43.521Z,1.5
2022-08-23T14:21:07.537Z,1.700
2022-08-23T14:22:07.874Z,1.399
2022-08-23T14:23:12.026Z,1
2022-08-23T14:24:08.051Z,1.399
2022-08-23T14:25:07.686Z,1.5
2022-08-23T14:26:07.095Z,1.399
2022-08-23T14:27:07.596Z,1.5
2022-08-23T14:28:07.151Z,1.600
2022-08-23T14:29:07.143Z,1.5
2022-08-23T14:30:08.377Z,1.600
2022-08-23T14:34:07.607Z,1.799
2022-08-23T14:35:07.152Z,1.5
2022-08-23T14:36:07.470Z,1.200
2022-08-23T14:38:07.449Z,1.5
2022-08-23T14:39:07.778Z,1.600
2022-08-23T14:41:07.500Z,1.5
2022-08-23T14:42:07.736Z,1.600
2022-08-23T14:43:07.080Z,1.399
2022-08-23T14:45:07.273Z,1.5
2022-08-23T14:48:07.535Z,1.600
2022-08-23T14:49:07.169Z,1.5
2022-08-23T14:50:07.729Z,1.700
2022-08-23T14:51:07.182Z,1.399
2022-08-23T14:52:07.412Z,1.5
2022-08-23T14:54:07.629Z,1.600
2022-08-23T14:55:12.375Z,1.399
2022-08-23T14:56:21.085Z,1.799
2022-08-23T14:57:07.277Z,1.399
2022-08-23T14:58:07.831Z,1.5
2022-08-23T14:59:07.383Z,1
2022-08-23T15:00:08.527Z,2
2022-08-23T15:01:12.356Z,1.399
2022-08-23T15:02:08.001Z,1.200
2022-08-23T15:03:09.818Z,1.700
2022-08-23T15:04:08.067Z,1.399
2022-08-23T15:05:07.861Z,1.600
2022-08-23T15:06:07.201Z,1.399
2022-08-23T15:08:07.282Z,1.700
2022-08-23T15:09:07.848Z,1.5
2022-08-23T15:10:08.147Z,1.399
2022-08-23T15:13:20.415Z,1.399
2022-08-23T15:15:07.357Z,1.200
2022-08-23T15:16:07.904Z,1.399
2022-08-23T15:17:21.632Z,1.100
2022-08-23T15:18:07.224Z,1.5
2022-08-23T15:19:08.159Z,1
2022-08-23T15:20:08.223Z,1.399
2022-08-23T15:21:08.166Z,1
2022-08-23T15:22:18.452Z,1.399
2022-08-23T15:23:07.481Z,1.5
2022-08-23T15:24:08.023Z,1.100
2022-08-23T15:25:08.229Z,1.5
2022-08-23T15:26:08.185Z,1.399
2022-08-23T15:27:08.011Z,1
2022-08-23T15:29:07.567Z,1.399
2022-08-23T15:30:07.482Z,1.100
2022-08-23T15:31:26.045Z,1
2022-08-23T15:35:07.473Z,1.5
2022-08-23T15:36:07.596Z,1.399
2022-08-23T15:38:07.601Z,1
2022-08-23T15:40:07.684Z,1.200
2022-08-23T15:41:07.354Z,1